createdAt,value
2022-10-16T00:01:29.109Z,16.60
2022-10-16T00:03:58.046Z,16.50
2022-10-16T00:06:26.436Z,16.50
2022-10-16T00:08:54.418Z,16.40
2022-10-16T00:11:28.348Z,16.50
2022-10-16T00:13:59.170Z,16.40
2022-10-16T00:16:27.739Z,16.40
2022-10-16T00:18:55.531Z,16.40
2022-10-16T00:21:25.542Z,16.40
2022-10-16T00:23:55.162Z,16.40
2022-10-16T00:26:23.009Z,16.40
2022-10-16T00:28:51.846Z,16.40
2022-10-16T00:31:22.050Z,16.30
2022-10-16T00:33:50.213Z,16.30
2022-10-16T00:36:21.317Z,16.30
2022-10-16T00:38:51.033Z,16.30
2022-10-16T00:41:18.747Z,16.30
2022-10-16T00:43:58.184Z,16.40
2022-10-16T00:46:28.646Z,16.30
2022-10-16T00:49:05.879Z,16.20
2022-10-16T00:51:38.958Z,16.20
2022-10-16T00:54:12.722Z,16.20
2022-10-16T00:56:40.831Z,16.20
2022-10-16T00:59:19.078Z,16.20
2022-10-16T01:01:46.479Z,16.10
2022-10-16T01:04:14.175Z,16.10
2022-10-16T01:07:02.941Z,16.10
2022-10-16T01:10:00.153Z,16.10
2022-10-16T01:13:04.229Z,16.10
2022-10-16T01:15:45.482Z,16.20
2022-10-16T01:18:17.980Z,16.10
2022-10-16T01:21:02.172Z,16.00
2022-10-16T01:23:50.030Z,16.00
2022-10-16T01:26:26.497Z,16.00
2022-10-16T01:29:02.778Z,16.20
2022-10-16T01:31:34.743Z,16.20
2022-10-16T01:34:06.228Z,16.10
2022-10-16T01:36:50.235Z,16.20
2022-10-16T01:39:23.910Z,16.10
2022-10-16T01:41:59.997Z,16.10
2022-10-16T01:44:31.916Z,16.00
2022-10-16T01:47:00.422Z,16.10
2022-10-16T01:49:34.840Z,16.00
2022-10-16T01:52:07.362Z,16.10
2022-10-16T01:54:37.869Z,16.10
2022-10-16T01:57:08.171Z,16.10
2022-10-16T01:59:44.567Z,16.00
2022-10-16T02:02:13.589Z,16.00
2022-10-16T02:04:48.550Z,15.90
2022-10-16T02:07:16.693Z,15.90
2022-10-16T02:09:44.342Z,15.90
2022-10-16T02:12:24.962Z,16.00
2022-10-16T02:14:52.713Z,16.00
2022-10-16T02:17:20.302Z,16.10
2022-10-16T02:19:50.229Z,16.00
2022-10-16T02:22:29.009Z,16.00
2022-10-16T02:25:09.323Z,16.20
2022-10-16T02:27:57.309Z,16.10
2022-10-16T02:30:42.558Z,16.00
2022-10-16T02:33:14.603Z,16.00
2022-10-16T02:35:44.443Z,16.10
2022-10-16T02:38:12.878Z,16.10
2022-10-16T02:40:40.979Z,16.00
2022-10-16T02:43:08.844Z,16.10
2022-10-16T02:45:36.381Z,16.10
2022-10-16T02:48:03.972Z,16.10
2022-10-16T02:50:31.221Z,16.10
2022-10-16T02:52:58.482Z,16.20
2022-10-16T02:55:26.098Z,16.20
2022-10-16T02:57:53.492Z,16.20
2022-10-16T03:00:21.255Z,16.20
2022-10-16T03:02:48.816Z,16.20
2022-10-16T03:05:16.434Z,16.20
2022-10-16T03:07:43.938Z,16.20
2022-10-16T03:10:11.616Z,16.20
2022-10-16T03:12:39.033Z,16.20
2022-10-16T03:15:07.815Z,16.20
2022-10-16T03:17:35.727Z,16.20
2022-10-16T03:20:04.122Z,16.20
2022-10-16T03:22:31.955Z,16.30
2022-10-16T03:24:59.312Z,16.30
2022-10-16T03:27:27.001Z,16.30
2022-10-16T03:29:54.584Z,16.30
2022-10-16T03:32:22.637Z,16.30
2022-10-16T03:34:49.976Z,16.30
2022-10-16T03:37:17.428Z,16.20
2022-10-16T03:39:44.755Z,16.30
2022-10-16T03:42:12.135Z,16.30
2022-10-16T03:44:39.464Z,16.40
2022-10-16T03:47:06.839Z,16.40
2022-10-16T03:49:34.192Z,16.40
2022-10-16T03:52:01.534Z,16.40
2022-10-16T03:54:28.971Z,16.40
2022-10-16T03:56:56.318Z,16.40
2022-10-16T03:59:23.835Z,16.40
2022-10-16T04:01:51.137Z,16.40
2022-10-16T04:04:18.977Z,16.40
2022-10-16T04:06:46.292Z,16.30
2022-10-16T04:09:13.708Z,16.30
2022-10-16T04:11:41.116Z,16.30
2022-10-16T04:14:08.486Z,16.20
2022-10-16T04:16:35.930Z,16.30
2022-10-16T04:19:04.081Z,16.20
2022-10-16T04:21:31.431Z,16.30
2022-10-16T04:23:58.759Z,16.30
2022-10-16T04:26:26.055Z,16.20
2022-10-16T04:28:53.426Z,16.10
2022-10-16T04:31:21.194Z,16.20
2022-10-16T04:33:48.681Z,16.30
2022-10-16T04:36:15.977Z,16.30
2022-10-16T04:38:43.406Z,16.30
2022-10-16T04:41:10.785Z,16.20
2022-10-16T04:43:38.087Z,16.30
2022-10-16T04:46:06.057Z,16.30
2022-10-16T04:48:33.752Z,16.40
2022-10-16T04:51:01.396Z,16.40
2022-10-16T04:53:28.710Z,16.40
2022-10-16T04:55:57.071Z,16.40
2022-10-16T04:58:24.650Z,16.30
2022-10-16T05:00:51.917Z,16.40
2022-10-16T05:03:19.428Z,16.30
2022-10-16T05:05:47.479Z,16.30
2022-10-16T05:08:16.303Z,16.40
2022-10-16T05:10:45.369Z,16.40
2022-10-16T05:13:12.841Z,16.30
2022-10-16T05:15:40.257Z,16.20
2022-10-16T05:18:07.615Z,16.30
2022-10-16T05:20:35.429Z,16.30
2022-10-16T05:23:02.808Z,16.30
2022-10-16T05:25:30.215Z,16.30
2022-10-16T05:27:57.577Z,16.30
2022-10-16T05:30:25.022Z,16.30
2022-10-16T05:32:52.639Z,16.20
2022-10-16T05:35:20.457Z,16.20
2022-10-16T05:37:48.637Z,16.20
2022-10-16T05:40:17.062Z,16.20
2022-10-16T05:42:44.332Z,16.20
2022-10-16T05:45:13.270Z,16.20
2022-10-16T05:47:41.064Z,16.20
2022-10-16T05:50:08.742Z,16.20
2022-10-16T05:52:36.445Z,16.20
2022-10-16T05:55:04.477Z,16.30
2022-10-16T05:57:32.204Z,16.20
2022-10-16T05:59:59.545Z,16.30
2022-10-16T06:02:26.860Z,16.20
2022-10-16T06:04:54.869Z,16.20
2022-10-16T06:07:23.094Z,16.20
2022-10-16T06:09:51.364Z,16.20
2022-10-16T06:12:18.679Z,16.20
2022-10-16T06:14:49.836Z,16.20
2022-10-16T06:17:17.347Z,16.20
2022-10-16T06:19:44.826Z,16.20
2022-10-16T06:22:12.185Z,16.30
2022-10-16T06:24:39.518Z,16.30
2022-10-16T06:27:06.807Z,16.40
2022-10-16T06:29:34.273Z,16.50
2022-10-16T06:32:01.671Z,16.50
2022-10-16T06:34:29.074Z,16.50
2022-10-16T06:36:56.580Z,16.50
2022-10-16T06:39:23.917Z,16.60
2022-10-16T06:41:51.469Z,16.60
2022-10-16T06:44:18.877Z,16.70
2022-10-16T06:46:46.189Z,16.80
2022-10-16T06:49:13.610Z,16.90
2022-10-16T06:51:43.347Z,16.90
2022-10-16T06:54:11.143Z,16.90
2022-10-16T06:56:38.861Z,16.90
2022-10-16T06:59:06.356Z,16.90
2022-10-16T07:01:34.330Z,17.10
2022-10-16T07:04:03.194Z,17.10
2022-10-16T07:06:33.553Z,17.20
2022-10-16T07:09:05.183Z,17.20
2022-10-16T07:11:33.218Z,17.20
2022-10-16T07:14:00.817Z,17.20
2022-10-16T07:16:30.729Z,17.20
2022-10-16T07:19:01.082Z,17.30
2022-10-16T07:21:31.218Z,17.30
2022-10-16T07:24:02.106Z,17.40
2022-10-16T07:26:32.067Z,17.30
2022-10-16T07:28:59.667Z,17.40
2022-10-16T07:31:27.332Z,17.50
2022-10-16T07:33:54.944Z,17.50
2022-10-16T07:36:22.867Z,17.60
2022-10-16T07:38:52.814Z,17.70
2022-10-16T07:41:22.874Z,17.60
2022-10-16T07:43:52.433Z,17.60
2022-10-16T07:46:21.684Z,17.80
2022-10-16T07:48:49.693Z,17.80
2022-10-16T07:51:19.407Z,17.80
2022-10-16T07:53:48.060Z,17.80
2022-10-16T07:56:16.288Z,17.80
2022-10-16T07:58:43.685Z,17.90
2022-10-16T08:01:14.454Z,17.90
2022-10-16T08:03:46.929Z,18.00
2022-10-16T08:06:14.677Z,18.30
2022-10-16T08:08:42.314Z,18.30
2022-10-16T08:11:10.050Z,18.40
2022-10-16T08:13:37.873Z,18.40
2022-10-16T08:16:08.966Z,18.30
2022-10-16T08:18:37.715Z,18.50
2022-10-16T08:21:06.695Z,19.40
2022-10-16T08:23:34.774Z,20.00
2022-10-16T08:26:09.236Z,20.50
2022-10-16T08:28:37.109Z,21.00
2022-10-16T08:31:12.855Z,21.80
2022-10-16T08:33:42.989Z,22.30
2022-10-16T08:36:11.942Z,23.40
2022-10-16T08:38:40.070Z,24.10
2022-10-16T08:41:28.932Z,24.10
2022-10-16T08:44:02.078Z,24.30
2022-10-16T08:46:38.324Z,24.70
2022-10-16T08:49:12.396Z,24.60
2022-10-16T08:51:43.343Z,25.70
2022-10-16T08:54:29.514Z,26.00
2022-10-16T08:56:57.870Z,25.90
2022-10-16T08:59:25.249Z,26.30
2022-10-16T09:01:53.527Z,25.90
2022-10-16T09:04:45.220Z,26.20
2022-10-16T09:07:31.365Z,26.10
2022-10-16T09:10:06.731Z,26.20
2022-10-16T09:12:52.730Z,25.50
2022-10-16T09:15:28.987Z,26.00
2022-10-16T09:18:08.377Z,26.50
2022-10-16T09:20:52.835Z,26.60
2022-10-16T09:23:26.743Z,26.40
2022-10-16T09:25:55.319Z,26.30
2022-10-16T09:28:22.821Z,26.80
2022-10-16T09:30:50.867Z,26.90
2022-10-16T09:33:21.449Z,27.00
2022-10-16T09:35:52.684Z,26.50
2022-10-16T09:38:30.339Z,26.50
2022-10-16T09:41:03.168Z,27.60
2022-10-16T09:43:54.599Z,26.90
2022-10-16T09:46:33.538Z,26.50
2022-10-16T09:49:21.756Z,27.50
2022-10-16T09:51:49.237Z,27.50
2022-10-16T09:54:19.337Z,27.10
2022-10-16T09:56:50.233Z,27.50
2022-10-16T09:59:19.980Z,26.80
2022-10-16T10:01:52.387Z,26.80
2022-10-16T10:04:24.886Z,27.10
2022-10-16T10:06:55.365Z,26.40
2022-10-16T10:09:28.363Z,26.70
2022-10-16T10:12:04.489Z,26.70
2022-10-16T10:14:34.557Z,26.70
2022-10-16T10:17:07.748Z,27.10
2022-10-16T10:19:43.487Z,27.50
2022-10-16T10:22:29.821Z,26.60
2022-10-16T10:24:58.054Z,26.40
2022-10-16T10:27:44.212Z,27.30
2022-10-16T10:30:42.190Z,26.90
2022-10-16T10:33:21.333Z,26.50
2022-10-16T10:36:04.076Z,27.10
2022-10-16T10:39:01.787Z,26.90
2022-10-16T10:41:55.613Z,27.10
2022-10-16T10:44:56.528Z,26.50
2022-10-16T10:47:29.657Z,26.60
2022-10-16T10:50:07.914Z,26.50
2022-10-16T10:52:42.999Z,25.10
2022-10-16T10:55:26.696Z,25.00
2022-10-16T10:58:19.460Z,24.80
2022-10-16T11:01:09.422Z,25.50
2022-10-16T11:04:03.041Z,25.60
2022-10-16T11:07:13.081Z,24.80
2022-10-16T11:09:50.894Z,25.00
2022-10-16T11:12:30.074Z,25.40
2022-10-16T11:15:03.158Z,25.40
2022-10-16T11:17:35.283Z,25.10
2022-10-16T11:20:24.100Z,25.50
2022-10-16T11:23:17.177Z,25.00
2022-10-16T11:25:46.249Z,24.90
2022-10-16T11:28:16.417Z,24.50
2022-10-16T11:30:53.326Z,23.80
2022-10-16T11:33:42.510Z,23.90
2022-10-16T11:36:19.113Z,23.80
2022-10-16T11:38:49.489Z,24.10
2022-10-16T11:41:27.871Z,23.80
2022-10-16T11:44:04.259Z,24.10
2022-10-16T11:46:47.807Z,24.60
2022-10-16T11:49:27.470Z,24.10
2022-10-16T11:52:25.694Z,24.80
2022-10-16T11:54:56.993Z,25.60
2022-10-16T11:57:48.111Z,25.50
2022-10-16T12:00:29.933Z,25.40
2022-10-16T12:03:23.339Z,25.90
2022-10-16T12:06:14.822Z,25.10
2022-10-16T12:08:45.023Z,25.10
2022-10-16T12:11:28.726Z,25.10
2022-10-16T12:14:14.133Z,25.10
2022-10-16T12:17:22.829Z,25.20
2022-10-16T12:20:20.786Z,25.10
2022-10-16T12:23:23.095Z,24.60
2022-10-16T12:25:55.489Z,24.60
2022-10-16T12:28:27.339Z,24.20
2022-10-16T12:31:17.672Z,24.20
2022-10-16T12:33:56.034Z,24.40
2022-10-16T12:36:35.332Z,24.70
2022-10-16T12:39:03.400Z,24.70
2022-10-16T12:41:31.804Z,24.20
2022-10-16T12:44:02.427Z,24.60
2022-10-16T12:46:29.711Z,24.40
2022-10-16T12:49:20.532Z,24.70
2022-10-16T12:51:47.867Z,24.70
2022-10-16T12:54:21.354Z,24.50
2022-10-16T12:57:13.156Z,24.60
2022-10-16T13:00:05.386Z,24.70
2022-10-16T13:02:50.706Z,24.70
2022-10-16T13:08:26.141Z,24.40
2022-10-16T13:11:07.938Z,24.10
2022-10-16T13:13:45.985Z,24.40
2022-10-16T13:16:22.306Z,24.60
2022-10-16T13:19:06.393Z,24.40
2022-10-16T13:21:52.698Z,24.60
2022-10-16T13:24:41.180Z,25.00
2022-10-16T13:27:36.213Z,25.20
2022-10-16T13:30:17.824Z,24.80
2022-10-16T13:32:50.359Z,25.10
2022-10-16T13:35:27.360Z,25.30
2022-10-16T13:38:06.675Z,25.40
2022-10-16T13:40:35.674Z,25.00
2022-10-16T13:43:25.952Z,24.50
2022-10-16T13:45:57.262Z,24.50
2022-10-16T13:48:25.130Z,24.40
2022-10-16T13:51:01.490Z,24.30
2022-10-16T13:53:32.357Z,24.60
2022-10-16T13:56:01.303Z,24.30
2022-10-16T13:58:28.661Z,24.10
2022-10-16T14:01:02.015Z,23.80
2022-10-16T14:03:30.526Z,23.90
2022-10-16T14:06:07.605Z,24.10
2022-10-16T14:08:35.091Z,23.80
2022-10-16T14:11:03.055Z,23.80
2022-10-16T14:13:44.862Z,23.90
2022-10-16T14:16:21.926Z,24.10
2022-10-16T14:19:02.174Z,23.90
2022-10-16T14:21:30.265Z,23.80
2022-10-16T14:23:57.878Z,24.10
2022-10-16T14:26:28.001Z,24.30
2022-10-16T14:29:18.298Z,24.20
2022-10-16T14:31:55.885Z,23.80
2022-10-16T14:34:28.422Z,23.70
2022-10-16T14:36:57.566Z,23.60
2022-10-16T14:39:26.641Z,23.40
2022-10-16T14:41:57.901Z,23.50
2022-10-16T14:44:32.260Z,23.70
2022-10-16T14:47:08.189Z,24.10
2022-10-16T14:49:35.967Z,24.20
2022-10-16T14:52:06.207Z,24.20
2022-10-16T14:54:33.574Z,24.10
2022-10-16T14:57:00.874Z,24.10
2022-10-16T14:59:38.604Z,24.20
2022-10-16T15:02:32.156Z,24.20
2022-10-16T15:05:12.776Z,24.00
2022-10-16T15:07:40.060Z,24.00
2022-10-16T15:10:07.535Z,23.90
2022-10-16T15:12:34.948Z,23.80
2022-10-16T15:15:02.570Z,23.80
2022-10-16T15:17:30.026Z,23.90
2022-10-16T15:19:59.380Z,23.50
2022-10-16T15:22:26.750Z,23.40
2022-10-16T15:24:54.133Z,23.40
2022-10-16T15:27:21.387Z,23.10
2022-10-16T15:29:48.696Z,23.10
2022-10-16T15:32:16.103Z,23.10
2022-10-16T15:34:43.580Z,23.10
2022-10-16T15:37:12.878Z,22.90
2022-10-16T15:39:41.359Z,23.10
2022-10-16T15:42:08.950Z,23.00
2022-10-16T15:44:36.332Z,22.80
2022-10-16T15:47:03.674Z,22.80
2022-10-16T15:49:30.942Z,22.70
2022-10-16T15:51:58.622Z,22.70
2022-10-16T15:54:25.937Z,22.50
2022-10-16T15:56:53.246Z,22.50
2022-10-16T15:59:21.819Z,22.40
2022-10-16T16:01:49.264Z,22.40
2022-10-16T16:04:42.174Z,22.30
2022-10-16T16:07:08.257Z,22.30
2022-10-16T16:09:35.762Z,22.20
2022-10-16T16:12:03.461Z,22.10
2022-10-16T16:14:30.918Z,22.10
2022-10-16T16:16:59.016Z,22.10
2022-10-16T16:19:26.369Z,22.00
2022-10-16T16:21:53.650Z,22.00
2022-10-16T16:24:21.180Z,22.00
2022-10-16T16:26:48.524Z,21.90
2022-10-16T16:29:17.004Z,21.90
2022-10-16T16:31:44.425Z,22.20
2022-10-16T16:34:11.825Z,22.50
2022-10-16T16:36:40.952Z,22.70
2022-10-16T16:39:08.834Z,22.80
2022-10-16T16:41:36.183Z,22.80
2022-10-16T16:44:06.302Z,22.90
2022-10-16T16:46:34.694Z,22.90
2022-10-16T16:49:04.948Z,22.90
2022-10-16T16:51:35.692Z,22.80
2022-10-16T16:54:07.936Z,22.90
2022-10-16T16:56:35.925Z,22.90
2022-10-16T16:59:03.841Z,22.90
2022-10-16T17:01:32.433Z,22.80
2022-10-16T17:04:00.689Z,22.80
2022-10-16T17:06:32.712Z,22.80
2022-10-16T17:09:03.448Z,22.80
2022-10-16T17:11:31.018Z,22.80
2022-10-16T17:14:00.159Z,22.80
2022-10-16T17:16:31.282Z,22.80
2022-10-16T17:19:04.514Z,22.80
2022-10-16T17:21:33.077Z,22.80
2022-10-16T17:24:01.544Z,22.70
2022-10-16T17:26:29.269Z,22.80
2022-10-16T17:28:59.126Z,22.80
2022-10-16T17:31:29.604Z,22.80
2022-10-16T17:34:02.248Z,22.80
2022-10-16T17:36:33.083Z,22.80
2022-10-16T17:39:04.715Z,22.70
2022-10-16T17:41:33.902Z,22.50
2022-10-16T17:44:01.836Z,22.40
2022-10-16T17:46:29.599Z,22.40
2022-10-16T17:48:57.143Z,22.30
2022-10-16T17:51:29.591Z,22.30
2022-10-16T17:54:00.224Z,22.20
2022-10-16T17:56:28.926Z,22.20
2022-10-16T17:59:00.394Z,22.20
2022-10-16T18:01:30.218Z,22.10
2022-10-16T18:04:00.456Z,22.10
2022-10-16T18:06:28.464Z,22.10
2022-10-16T18:08:57.940Z,22.10
2022-10-16T18:11:26.221Z,22.10
2022-10-16T18:13:54.591Z,22.00
2022-10-16T18:16:22.862Z,22.00
2022-10-16T18:18:50.497Z,22.00
2022-10-16T18:21:20.302Z,22.00
2022-10-16T18:23:51.000Z,21.90
2022-10-16T18:26:20.167Z,22.00
2022-10-16T18:28:47.985Z,21.90
2022-10-16T18:31:16.988Z,21.90
2022-10-16T18:33:50.206Z,21.90
2022-10-16T18:36:23.288Z,21.90
2022-10-16T18:38:51.083Z,21.80
2022-10-16T18:41:19.313Z,21.80
2022-10-16T18:43:47.224Z,21.80
2022-10-16T18:46:17.593Z,21.80
2022-10-16T18:48:46.586Z,21.80
2022-10-16T18:51:26.402Z,21.70
2022-10-16T18:53:56.923Z,21.70
2022-10-16T18:56:25.438Z,21.70
2022-10-16T18:58:59.243Z,21.70
2022-10-16T19:01:29.718Z,21.70
2022-10-16T19:03:59.682Z,21.70
2022-10-16T19:06:28.693Z,21.60
2022-10-16T19:08:57.231Z,21.60
2022-10-16T19:11:26.073Z,21.60
2022-10-16T19:13:56.845Z,21.60
2022-10-16T19:16:31.157Z,21.50
2022-10-16T19:19:00.678Z,21.50
2022-10-16T19:21:29.861Z,21.50
2022-10-16T19:23:59.876Z,21.40
2022-10-16T19:26:28.797Z,21.40
2022-10-16T19:28:59.164Z,21.40
2022-10-16T19:31:28.440Z,21.40
2022-10-16T19:33:58.746Z,21.40
2022-10-16T19:36:29.689Z,21.40
2022-10-16T19:39:02.905Z,21.30
2022-10-16T19:41:31.246Z,21.30
2022-10-16T19:44:03.651Z,21.30
2022-10-16T19:46:31.906Z,21.20
2022-10-16T19:49:02.050Z,21.20
2022-10-16T19:51:30.963Z,21.20
2022-10-16T19:54:00.475Z,21.20
2022-10-16T19:56:30.690Z,21.10
2022-10-16T19:58:59.761Z,21.10
2022-10-16T20:01:30.116Z,21.10
2022-10-16T20:03:58.394Z,21.10
2022-10-16T20:06:25.917Z,21.10
2022-10-16T20:08:54.909Z,21.00
2022-10-16T20:11:28.067Z,21.00
2022-10-16T20:13:55.913Z,21.00
2022-10-16T20:16:23.514Z,21.00
2022-10-16T20:18:52.985Z,21.00
2022-10-16T20:21:26.991Z,20.90
2022-10-16T20:23:54.605Z,20.90
2022-10-16T20:26:24.390Z,20.90
2022-10-16T20:28:52.610Z,20.90
2022-10-16T20:31:26.627Z,20.90
2022-10-16T20:33:55.281Z,20.90
2022-10-16T20:36:26.068Z,20.90
2022-10-16T20:38:53.551Z,20.80
2022-10-16T20:41:21.136Z,20.80
2022-10-16T20:43:49.983Z,20.80
2022-10-16T20:46:20.837Z,20.80
2022-10-16T20:48:48.416Z,20.80
2022-10-16T20:51:29.118Z,20.70
2022-10-16T20:53:58.702Z,20.70
2022-10-16T20:56:27.966Z,20.70
2022-10-16T20:58:55.322Z,20.70
2022-10-16T21:01:25.855Z,20.70
2022-10-16T21:03:56.634Z,20.70
2022-10-16T21:06:24.646Z,20.70
2022-10-16T21:08:52.288Z,20.70
2022-10-16T21:11:21.196Z,20.70
2022-10-16T21:13:48.946Z,20.60
2022-10-16T21:16:17.649Z,20.70
2022-10-16T21:18:45.115Z,20.60
2022-10-16T21:21:26.921Z,20.60
2022-10-16T21:23:55.765Z,20.60
2022-10-16T21:26:26.325Z,20.60
2022-10-16T21:28:58.571Z,20.50
2022-10-16T21:31:26.325Z,20.50
2022-10-16T21:33:55.378Z,20.60
2022-10-16T21:36:25.683Z,20.50
2022-10-16T21:38:53.562Z,20.50
2022-10-16T21:41:27.430Z,20.50
2022-10-16T21:43:56.384Z,20.50
2022-10-16T21:46:26.884Z,20.50
2022-10-16T21:48:58.767Z,20.40
2022-10-16T21:51:26.909Z,20.40
2022-10-16T21:53:54.848Z,20.40
2022-10-16T21:56:23.255Z,20.40
2022-10-16T21:58:50.792Z,20.40
2022-10-16T22:01:20.621Z,20.40
2022-10-16T22:03:48.656Z,20.40
2022-10-16T22:06:18.267Z,20.30
2022-10-16T22:08:47.054Z,20.30
2022-10-16T22:11:15.736Z,20.30
2022-10-16T22:13:43.442Z,20.30
2022-10-16T22:16:11.354Z,20.30
2022-10-16T22:18:40.039Z,20.30
2022-10-16T22:21:09.008Z,20.20
2022-10-16T22:23:36.815Z,20.20
2022-10-16T22:26:09.514Z,20.20
2022-10-16T22:28:38.263Z,20.20
2022-10-16T22:31:08.486Z,20.20
2022-10-16T22:33:36.005Z,20.20
2022-10-16T22:36:05.754Z,20.20
2022-10-16T22:38:34.521Z,20.20
2022-10-16T22:41:13.144Z,20.10
2022-10-16T22:43:43.945Z,20.10
2022-10-16T22:46:14.114Z,20.10
2022-10-16T22:48:41.768Z,20.10
2022-10-16T22:51:09.661Z,20.10
2022-10-16T22:53:37.088Z,20.10
2022-10-16T22:56:04.629Z,20.10
2022-10-16T22:58:32.146Z,20.00
2022-10-16T23:00:59.706Z,20.00
2022-10-16T23:03:27.235Z,20.00
2022-10-16T23:05:54.598Z,20.00
2022-10-16T23:08:21.957Z,20.00
2022-10-16T23:10:49.786Z,20.00
2022-10-16T23:13:17.118Z,20.00
2022-10-16T23:15:45.335Z,19.90
2022-10-16T23:18:12.709Z,19.90
2022-10-16T23:20:40.781Z,19.90
2022-10-16T23:23:08.790Z,19.90
2022-10-16T23:25:37.165Z,19.90
2022-10-16T23:28:04.844Z,19.90
2022-10-16T23:30:32.279Z,19.90
2022-10-16T23:32:59.610Z,19.90
2022-10-16T23:35:26.984Z,19.80
2022-10-16T23:37:54.443Z,19.80
2022-10-16T23:40:21.795Z,19.80
2022-10-16T23:42:49.122Z,19.80
2022-10-16T23:45:16.495Z,19.80
2022-10-16T23:47:43.908Z,19.80
2022-10-16T23:50:11.286Z,19.80
2022-10-16T23:52:38.588Z,19.80
2022-10-16T23:55:06.318Z,19.80
2022-10-16T23:57:33.696Z,19.70
